sensor_id;sensor_type;location;lat;lon;timestamp;P1;durP1;ratioP1;P2;durP2;ratioP2
36443;SDS011;24692;45.642;13.806;2022-08-21T00:01:01;3.72;;;1.17;;
36443;SDS011;24692;45.642;13.806;2022-08-21T00:03:31;1.73;;;1.23;;
36443;SDS011;24692;45.642;13.806;2022-08-21T00:05:57;4.22;;;1.30;;
36443;SDS011;24692;45.642;13.806;2022-08-21T00:08:23;2.15;;;1.30;;
36443;SDS011;24692;45.642;13.806;2022-08-21T00:10:49;1.20;;;1.10;;
36443;SDS011;24692;45.642;13.806;2022-08-21T00:13:15;1.98;;;1.15;;
36443;SDS011;24692;45.642;13.806;2022-08-21T00:15:42;1.40;;;1.10;;
36443;SDS011;24692;45.642;13.806;2022-08-21T00:18:09;4.35;;;1.20;;
36443;SDS011;24692;45.642;13.806;2022-08-21T00:20:36;1.30;;;1.20;;
36443;SDS011;24692;45.642;13.806;2022-08-21T00:23:03;1.30;;;1.20;;
36443;SDS011;24692;45.642;13.806;2022-08-21T00:25:29;1.38;;;1.00;;
36443;SDS011;24692;45.642;13.806;2022-08-21T00:27:55;1.63;;;1.35;;
36443;SDS011;24692;45.642;13.806;2022-08-21T00:30:21;1.17;;;1.08;;
36443;SDS011;24692;45.642;13.806;2022-08-21T00:32:49;3.03;;;1.10;;
36443;SDS011;24692;45.642;13.806;2022-08-21T00:35:18;2.25;;;1.27;;
36443;SDS011;24692;45.642;13.806;2022-08-21T00:37:46;1.83;;;1.20;;
36443;SDS011;24692;45.642;13.806;2022-08-21T00:40:13;1.55;;;1.20;;
36443;SDS011;24692;45.642;13.806;2022-08-21T00:42:42;1.15;;;1.05;;
36443;SDS011;24692;45.642;13.806;2022-08-21T00:45:09;1.38;;;1.20;;
36443;SDS011;24692;45.642;13.806;2022-08-21T00:47:35;3.08;;;1.00;;
36443;SDS011;24692;45.642;13.806;2022-08-21T00:50:02;1.25;;;1.15;;
36443;SDS011;24692;45.642;13.806;2022-08-21T00:52:30;1.30;;;1.20;;
36443;SDS011;24692;45.642;13.806;2022-08-21T00:54:59;1.10;;;1.08;;
36443;SDS011;24692;45.642;13.806;2022-08-21T00:57:29;1.27;;;1.15;;
36443;SDS011;24692;45.642;13.806;2022-08-21T00:59:58;1.15;;;1.10;;
36443;SDS011;24692;45.642;13.806;2022-08-21T01:02:28;1.88;;;1.20;;
36443;SDS011;24692;45.642;13.806;2022-08-21T01:04:53;1.30;;;1.20;;
36443;SDS011;24692;45.642;13.806;2022-08-21T01:07:19;1.15;;;1.00;;
36443;SDS011;24692;45.642;13.806;2022-08-21T01:09:45;1.85;;;1.10;;
36443;SDS011;24692;45.642;13.806;2022-08-21T01:12:13;1.35;;;1.10;;
36443;SDS011;24692;45.642;13.806;2022-08-21T01:14:40;1.88;;;1.20;;
36443;SDS011;24692;45.642;13.806;2022-08-21T01:17:07;1.20;;;1.10;;
36443;SDS011;24692;45.642;13.806;2022-08-21T01:19:34;2.65;;;1.25;;
36443;SDS011;24692;45.642;13.806;2022-08-21T01:22:00;1.17;;;1.10;;
36443;SDS011;24692;45.642;13.806;2022-08-21T01:24:26;2.03;;;1.30;;
36443;SDS011;24692;45.642;13.806;2022-08-21T01:26:52;1.38;;;1.27;;
36443;SDS011;24692;45.642;13.806;2022-08-21T01:31:57;1.30;;;1.20;;
36443;SDS011;24692;45.642;13.806;2022-08-21T01:34:24;2.03;;;1.02;;
36443;SDS011;24692;45.642;13.806;2022-08-21T01:36:50;1.38;;;1.25;;
36443;SDS011;24692;45.642;13.806;2022-08-21T01:39:15;1.42;;;1.17;;
36443;SDS011;24692;45.642;13.806;2022-08-21T01:41:41;2.50;;;1.17;;
36443;SDS011;24692;45.642;13.806;2022-08-21T01:44:07;2.92;;;1.20;;
36443;SDS011;24692;45.642;13.806;2022-08-21T01:46:35;3.13;;;1.02;;
36443;SDS011;24692;45.642;13.806;2022-08-21T01:49:01;2.33;;;1.40;;
36443;SDS011;24692;45.642;13.806;2022-08-21T01:51:27;1.63;;;1.52;;
36443;SDS011;24692;45.642;13.806;2022-08-21T01:53:53;2.03;;;1.17;;
36443;SDS011;24692;45.642;13.806;2022-08-21T01:56:18;3.00;;;1.30;;
36443;SDS011;24692;45.642;13.806;2022-08-21T01:58:45;4.03;;;1.20;;
36443;SDS011;24692;45.642;13.806;2022-08-21T02:01:12;1.75;;;1.15;;
36443;SDS011;24692;45.642;13.806;2022-08-21T02:03:38;1.40;;;1.30;;
36443;SDS011;24692;45.642;13.806;2022-08-21T02:06:06;1.75;;;1.30;;
36443;SDS011;24692;45.642;13.806;2022-08-21T02:08:36;1.40;;;1.30;;
36443;SDS011;24692;45.642;13.806;2022-08-21T02:11:02;3.30;;;1.23;;
36443;SDS011;24692;45.642;13.806;2022-08-21T02:13:28;2.10;;;1.23;;
36443;SDS011;24692;45.642;13.806;2022-08-21T02:15:54;2.22;;;1.20;;
36443;SDS011;24692;45.642;13.806;2022-08-21T02:18:19;1.45;;;1.30;;
36443;SDS011;24692;45.642;13.806;2022-08-21T02:20:47;1.17;;;1.15;;
36443;SDS011;24692;45.642;13.806;2022-08-21T02:23:13;1.10;;;1.10;;
36443;SDS011;24692;45.642;13.806;2022-08-21T02:25:40;1.00;;;1.00;;
36443;SDS011;24692;45.642;13.806;2022-08-21T02:28:07;1.52;;;1.10;;
36443;SDS011;24692;45.642;13.806;2022-08-21T02:30:37;2.17;;;1.30;;
36443;SDS011;24692;45.642;13.806;2022-08-21T02:33:05;1.65;;;1.33;;
36443;SDS011;24692;45.642;13.806;2022-08-21T02:35:32;1.17;;;1.15;;
36443;SDS011;24692;45.642;13.806;2022-08-21T02:37:59;4.10;;;1.33;;
36443;SDS011;24692;45.642;13.806;2022-08-21T02:40:28;3.60;;;1.10;;
36443;SDS011;24692;45.642;13.806;2022-08-21T02:42:56;1.40;;;1.30;;
36443;SDS011;24692;45.642;13.806;2022-08-21T02:45:23;2.22;;;1.38;;
36443;SDS011;24692;45.642;13.806;2022-08-21T02:50:21;1.35;;;1.25;;
36443;SDS011;24692;45.642;13.806;2022-08-21T02:52:52;2.15;;;1.30;;
36443;SDS011;24692;45.642;13.806;2022-08-21T02:55:23;1.45;;;1.35;;
36443;SDS011;24692;45.642;13.806;2022-08-21T02:57:51;1.77;;;1.40;;
36443;SDS011;24692;45.642;13.806;2022-08-21T03:00:17;1.30;;;1.20;;
36443;SDS011;24692;45.642;13.806;2022-08-21T03:02:45;2.55;;;1.20;;
36443;SDS011;24692;45.642;13.806;2022-08-21T03:05:11;3.33;;;1.30;;
36443;SDS011;24692;45.642;13.806;2022-08-21T03:07:39;1.83;;;1.20;;
36443;SDS011;24692;45.642;13.806;2022-08-21T03:10:05;1.50;;;1.00;;
36443;SDS011;24692;45.642;13.806;2022-08-21T03:12:32;1.15;;;1.08;;
36443;SDS011;24692;45.642;13.806;2022-08-21T03:15:00;1.52;;;1.00;;
36443;SDS011;24692;45.642;13.806;2022-08-21T03:17:27;4.35;;;1.45;;
36443;SDS011;24692;45.642;13.806;2022-08-21T03:19:53;1.60;;;1.45;;
36443;SDS011;24692;45.642;13.806;2022-08-21T03:22:19;1.25;;;1.15;;
36443;SDS011;24692;45.642;13.806;2022-08-21T03:24:44;1.50;;;1.30;;
36443;SDS011;24692;45.642;13.806;2022-08-21T03:27:10;1.30;;;1.20;;
36443;SDS011;24692;45.642;13.806;2022-08-21T03:29:38;2.75;;;1.33;;
36443;SDS011;24692;45.642;13.806;2022-08-21T03:32:04;4.35;;;1.20;;
36443;SDS011;24692;45.642;13.806;2022-08-21T03:34:30;3.70;;;1.47;;
36443;SDS011;24692;45.642;13.806;2022-08-21T03:36:55;1.50;;;1.40;;
36443;SDS011;24692;45.642;13.806;2022-08-21T03:39:21;1.40;;;1.30;;
36443;SDS011;24692;45.642;13.806;2022-08-21T03:41:47;1.67;;;1.20;;
36443;SDS011;24692;45.642;13.806;2022-08-21T03:44:13;3.78;;;1.17;;
36443;SDS011;24692;45.642;13.806;2022-08-21T03:46:38;2.60;;;1.43;;
36443;SDS011;24692;45.642;13.806;2022-08-21T03:49:05;1.63;;;1.50;;
36443;SDS011;24692;45.642;13.806;2022-08-21T03:51:31;2.27;;;1.50;;
36443;SDS011;24692;45.642;13.806;2022-08-21T03:53:58;2.15;;;1.25;;
36443;SDS011;24692;45.642;13.806;2022-08-21T03:56:24;3.80;;;1.50;;
36443;SDS011;24692;45.642;13.806;2022-08-21T03:58:50;1.50;;;1.40;;
36443;SDS011;24692;45.642;13.806;2022-08-21T04:01:15;1.40;;;1.30;;
36443;SDS011;24692;45.642;13.806;2022-08-21T04:03:41;1.30;;;1.20;;
36443;SDS011;24692;45.642;13.806;2022-08-21T04:06:07;2.70;;;1.60;;
36443;SDS011;24692;45.642;13.806;2022-08-21T04:08:33;2.38;;;1.48;;
36443;SDS011;24692;45.642;13.806;2022-08-21T04:10:58;3.30;;;1.50;;
36443;SDS011;24692;45.642;13.806;2022-08-21T04:13:25;2.23;;;1.50;;
36443;SDS011;24692;45.642;13.806;2022-08-21T04:15:53;2.38;;;1.40;;
36443;SDS011;24692;45.642;13.806;2022-08-21T04:18:19;5.47;;;1.57;;
36443;SDS011;24692;45.642;13.806;2022-08-21T04:20:46;2.50;;;1.58;;
36443;SDS011;24692;45.642;13.806;2022-08-21T04:23:17;2.33;;;1.40;;
36443;SDS011;24692;45.642;13.806;2022-08-21T04:25:46;2.05;;;1.27;;
36443;SDS011;24692;45.642;13.806;2022-08-21T04:28:11;3.53;;;1.50;;
36443;SDS011;24692;45.642;13.806;2022-08-21T04:30:37;1.45;;;1.35;;
36443;SDS011;24692;45.642;13.806;2022-08-21T04:33:02;3.78;;;1.30;;
36443;SDS011;24692;45.642;13.806;2022-08-21T04:35:29;1.40;;;1.30;;
36443;SDS011;24692;45.642;13.806;2022-08-21T04:37:55;1.90;;;1.30;;
36443;SDS011;24692;45.642;13.806;2022-08-21T04:40:22;2.33;;;1.30;;
36443;SDS011;24692;45.642;13.806;2022-08-21T04:43:01;1.40;;;1.23;;
36443;SDS011;24692;45.642;13.806;2022-08-21T04:45:32;1.58;;;1.48;;
36443;SDS011;24692;45.642;13.806;2022-08-21T04:48:00;2.33;;;1.47;;
36443;SDS011;24692;45.642;13.806;2022-08-21T04:50:35;1.60;;;1.50;;
36443;SDS011;24692;45.642;13.806;2022-08-21T04:53:07;2.00;;;1.30;;
36443;SDS011;24692;45.642;13.806;2022-08-21T04:55:36;1.40;;;1.30;;
36443;SDS011;24692;45.642;13.806;2022-08-21T04:58:04;1.50;;;1.33;;
36443;SDS011;24692;45.642;13.806;2022-08-21T05:00:31;1.77;;;1.50;;
36443;SDS011;24692;45.642;13.806;2022-08-21T05:02:57;4.22;;;1.35;;
36443;SDS011;24692;45.642;13.806;2022-08-21T05:05:25;4.27;;;1.83;;
36443;SDS011;24692;45.642;13.806;2022-08-21T05:07:54;1.38;;;1.27;;
36443;SDS011;24692;45.642;13.806;2022-08-21T05:10:21;1.63;;;1.40;;
36443;SDS011;24692;45.642;13.806;2022-08-21T05:12:48;2.10;;;1.63;;
36443;SDS011;24692;45.642;13.806;2022-08-21T05:15:14;3.60;;;1.30;;
36443;SDS011;24692;45.642;13.806;2022-08-21T05:17:40;2.67;;;1.83;;
36443;SDS011;24692;45.642;13.806;2022-08-21T05:20:07;1.73;;;1.50;;
36443;SDS011;24692;45.642;13.806;2022-08-21T05:22:36;2.22;;;1.40;;
36443;SDS011;24692;45.642;13.806;2022-08-21T05:25:02;3.70;;;1.30;;
36443;SDS011;24692;45.642;13.806;2022-08-21T05:27:29;1.50;;;1.40;;
36443;SDS011;24692;45.642;13.806;2022-08-21T05:29:56;2.17;;;1.33;;
36443;SDS011;24692;45.642;13.806;2022-08-21T05:32:22;2.05;;;1.40;;
36443;SDS011;24692;45.642;13.806;2022-08-21T05:34:48;1.77;;;1.53;;
36443;SDS011;24692;45.642;13.806;2022-08-21T05:37:14;1.67;;;1.52;;
36443;SDS011;24692;45.642;13.806;2022-08-21T05:39:40;1.77;;;1.40;;
36443;SDS011;24692;45.642;13.806;2022-08-21T05:42:06;2.35;;;1.70;;
36443;SDS011;24692;45.642;13.806;2022-08-21T05:44:32;2.27;;;1.43;;
36443;SDS011;24692;45.642;13.806;2022-08-21T05:47:07;1.50;;;1.40;;
36443;SDS011;24692;45.642;13.806;2022-08-21T05:49:35;2.20;;;1.27;;
36443;SDS011;24692;45.642;13.806;2022-08-21T05:52:02;3.22;;;1.60;;
36443;SDS011;24692;45.642;13.806;2022-08-21T05:54:28;1.77;;;1.50;;
36443;SDS011;24692;45.642;13.806;2022-08-21T05:56:54;3.70;;;1.40;;
36443;SDS011;24692;45.642;13.806;2022-08-21T05:59:20;1.40;;;1.30;;
36443;SDS011;24692;45.642;13.806;2022-08-21T06:01:46;2.88;;;1.42;;
36443;SDS011;24692;45.642;13.806;2022-08-21T06:04:12;3.63;;;1.52;;
36443;SDS011;24692;45.642;13.806;2022-08-21T06:06:38;1.92;;;1.50;;
36443;SDS011;24692;45.642;13.806;2022-08-21T06:09:04;2.47;;;1.50;;
36443;SDS011;24692;45.642;13.806;2022-08-21T06:11:30;2.40;;;1.35;;
36443;SDS011;24692;45.642;13.806;2022-08-21T06:13:57;3.00;;;1.77;;
36443;SDS011;24692;45.642;13.806;2022-08-21T06:16:23;3.47;;;1.58;;
36443;SDS011;24692;45.642;13.806;2022-08-21T06:18:49;1.45;;;1.30;;
36443;SDS011;24692;45.642;13.806;2022-08-21T06:21:15;2.92;;;1.45;;
36443;SDS011;24692;45.642;13.806;2022-08-21T06:23:41;1.35;;;1.25;;
36443;SDS011;24692;45.642;13.806;2022-08-21T06:26:08;3.50;;;1.52;;
36443;SDS011;24692;45.642;13.806;2022-08-21T06:28:35;2.50;;;1.48;;
36443;SDS011;24692;45.642;13.806;2022-08-21T06:31:09;1.92;;;1.40;;
36443;SDS011;24692;45.642;13.806;2022-08-21T06:33:44;6.75;;;1.65;;
36443;SDS011;24692;45.642;13.806;2022-08-21T06:36:10;3.03;;;1.50;;
36443;SDS011;24692;45.642;13.806;2022-08-21T06:38:36;2.92;;;1.20;;
36443;SDS011;24692;45.642;13.806;2022-08-21T06:41:02;2.72;;;1.35;;
36443;SDS011;24692;45.642;13.806;2022-08-21T06:43:29;2.00;;;1.58;;
36443;SDS011;24692;45.642;13.806;2022-08-21T06:45:55;3.33;;;1.50;;
36443;SDS011;24692;45.642;13.806;2022-08-21T06:48:21;1.95;;;1.45;;
36443;SDS011;24692;45.642;13.806;2022-08-21T06:50:47;2.17;;;1.40;;
36443;SDS011;24692;45.642;13.806;2022-08-21T06:53:13;1.60;;;1.35;;
36443;SDS011;24692;45.642;13.806;2022-08-21T06:55:41;1.50;;;1.40;;
36443;SDS011;24692;45.642;13.806;2022-08-21T06:58:07;1.52;;;1.42;;
36443;SDS011;24692;45.642;13.806;2022-08-21T07:00:35;1.60;;;1.50;;
36443;SDS011;24692;45.642;13.806;2022-08-21T07:03:03;1.30;;;1.20;;
36443;SDS011;24692;45.642;13.806;2022-08-21T07:05:29;1.95;;;1.40;;
36443;SDS011;24692;45.642;13.806;2022-08-21T07:07:56;2.15;;;1.45;;
36443;SDS011;24692;45.642;13.806;2022-08-21T07:10:23;1.98;;;1.40;;
36443;SDS011;24692;45.642;13.806;2022-08-21T07:12:49;3.63;;;1.40;;
36443;SDS011;24692;45.642;13.806;2022-08-21T07:15:15;1.35;;;1.25;;
36443;SDS011;24692;45.642;13.806;2022-08-21T07:17:41;2.10;;;1.35;;
36443;SDS011;24692;45.642;13.806;2022-08-21T07:20:07;1.98;;;1.30;;
36443;SDS011;24692;45.642;13.806;2022-08-21T07:22:35;1.10;;;1.10;;
36443;SDS011;24692;45.642;13.806;2022-08-21T07:25:03;1.80;;;1.33;;
36443;SDS011;24692;45.642;13.806;2022-08-21T07:27:29;1.40;;;1.30;;
36443;SDS011;24692;45.642;13.806;2022-08-21T07:29:56;1.38;;;1.27;;
36443;SDS011;24692;45.642;13.806;2022-08-21T07:32:22;2.67;;;1.25;;
36443;SDS011;24692;45.642;13.806;2022-08-21T07:34:47;1.27;;;1.17;;
36443;SDS011;24692;45.642;13.806;2022-08-21T07:37:13;4.90;;;1.45;;
36443;SDS011;24692;45.642;13.806;2022-08-21T07:39:39;1.80;;;1.35;;
36443;SDS011;24692;45.642;13.806;2022-08-21T07:42:04;1.58;;;1.27;;
36443;SDS011;24692;45.642;13.806;2022-08-21T07:44:30;2.60;;;1.58;;
36443;SDS011;24692;45.642;13.806;2022-08-21T07:46:56;2.53;;;1.40;;
36443;SDS011;24692;45.642;13.806;2022-08-21T07:49:21;1.48;;;1.38;;
36443;SDS011;24692;45.642;13.806;2022-08-21T07:51:47;2.47;;;1.60;;
36443;SDS011;24692;45.642;13.806;2022-08-21T07:54:13;3.20;;;1.83;;
36443;SDS011;24692;45.642;13.806;2022-08-21T07:56:38;2.42;;;1.90;;
36443;SDS011;24692;45.642;13.806;2022-08-21T07:59:04;2.13;;;2.00;;
36443;SDS011;24692;45.642;13.806;2022-08-21T08:01:29;3.40;;;1.80;;
36443;SDS011;24692;45.642;13.806;2022-08-21T08:03:55;2.28;;;1.70;;
36443;SDS011;24692;45.642;13.806;2022-08-21T08:06:21;3.35;;;2.00;;
36443;SDS011;24692;45.642;13.806;2022-08-21T08:08:48;2.08;;;1.88;;
36443;SDS011;24692;45.642;13.806;2022-08-21T08:11:13;2.40;;;1.67;;
36443;SDS011;24692;45.642;13.806;2022-08-21T08:13:43;2.92;;;1.88;;
36443;SDS011;24692;45.642;13.806;2022-08-21T08:16:11;3.50;;;1.90;;
36443;SDS011;24692;45.642;13.806;2022-08-21T08:18:36;2.45;;;1.83;;
36443;SDS011;24692;45.642;13.806;2022-08-21T08:21:03;1.88;;;1.73;;
36443;SDS011;24692;45.642;13.806;2022-08-21T08:23:29;4.53;;;1.95;;
36443;SDS011;24692;45.642;13.806;2022-08-21T08:25:55;2.80;;;1.88;;
36443;SDS011;24692;45.642;13.806;2022-08-21T08:28:21;3.00;;;1.92;;
36443;SDS011;24692;45.642;13.806;2022-08-21T08:30:47;2.22;;;2.00;;
36443;SDS011;24692;45.642;13.806;2022-08-21T08:33:14;2.63;;;1.70;;
36443;SDS011;24692;45.642;13.806;2022-08-21T08:35:41;2.53;;;1.70;;
36443;SDS011;24692;45.642;13.806;2022-08-21T08:38:10;3.67;;;2.05;;
36443;SDS011;24692;45.642;13.806;2022-08-21T08:40:43;2.20;;;1.80;;
36443;SDS011;24692;45.642;13.806;2022-08-21T08:43:18;3.63;;;1.88;;
36443;SDS011;24692;45.642;13.806;2022-08-21T08:45:46;1.80;;;1.70;;
36443;SDS011;24692;45.642;13.806;2022-08-21T08:48:19;2.15;;;1.80;;
36443;SDS011;24692;45.642;13.806;2022-08-21T08:50:59;3.65;;;1.90;;
36443;SDS011;24692;45.642;13.806;2022-08-21T08:53:29;2.10;;;1.65;;
36443;SDS011;24692;45.642;13.806;2022-08-21T08:55:57;4.97;;;1.80;;
36443;SDS011;24692;45.642;13.806;2022-08-21T08:58:29;2.90;;;1.80;;
36443;SDS011;24692;45.642;13.806;2022-08-21T09:00:59;2.10;;;1.80;;
36443;SDS011;24692;45.642;13.806;2022-08-21T09:03:26;2.47;;;1.88;;
36443;SDS011;24692;45.642;13.806;2022-08-21T09:08:53;3.20;;;2.10;;
36443;SDS011;24692;45.642;13.806;2022-08-21T09:11:56;3.38;;;2.00;;
36443;SDS011;24692;45.642;13.806;2022-08-21T09:17:04;4.03;;;1.80;;
36443;SDS011;24692;45.642;13.806;2022-08-21T09:27:37;5.95;;;2.00;;
36443;SDS011;24692;45.642;13.806;2022-08-21T09:30:04;2.40;;;1.92;;
36443;SDS011;24692;45.642;13.806;2022-08-21T09:32:31;2.05;;;1.63;;
36443;SDS011;24692;45.642;13.806;2022-08-21T09:40:19;3.22;;;2.10;;
36443;SDS011;24692;45.642;13.806;2022-08-21T09:42:56;3.65;;;2.05;;
36443;SDS011;24692;45.642;13.806;2022-08-21T09:45:25;2.45;;;2.00;;
36443;SDS011;24692;45.642;13.806;2022-08-21T09:47:50;2.60;;;2.20;;
36443;SDS011;24692;45.642;13.806;2022-08-21T09:50:19;12.40;;;3.78;;
36443;SDS011;24692;45.642;13.806;2022-08-21T09:52:54;4.13;;;2.20;;
36443;SDS011;24692;45.642;13.806;2022-08-21T09:56:18;1.77;;;1.55;;
36443;SDS011;24692;45.642;13.806;2022-08-21T09:58:33;2.00;;;1.80;;
36443;SDS011;24692;45.642;13.806;2022-08-21T10:01:01;1.85;;;1.60;;
36443;SDS011;24692;45.642;13.806;2022-08-21T10:03:28;2.55;;;1.85;;
36443;SDS011;24692;45.642;13.806;2022-08-21T10:06:04;1.85;;;1.60;;
36443;SDS011;24692;45.642;13.806;2022-08-21T10:08:34;3.35;;;1.58;;
36443;SDS011;24692;45.642;13.806;2022-08-21T10:11:04;2.78;;;1.70;;
36443;SDS011;24692;45.642;13.806;2022-08-21T10:16:26;4.13;;;1.70;;
36443;SDS011;24692;45.642;13.806;2022-08-21T10:19:20;5.90;;;1.80;;
36443;SDS011;24692;45.642;13.806;2022-08-21T10:24:43;3.45;;;1.90;;
36443;SDS011;24692;45.642;13.806;2022-08-21T10:30:13;2.17;;;2.03;;
36443;SDS011;24692;45.642;13.806;2022-08-21T10:35:26;2.00;;;1.80;;
36443;SDS011;24692;45.642;13.806;2022-08-21T10:46:18;4.50;;;1.70;;
36443;SDS011;24692;45.642;13.806;2022-08-21T10:49:25;1.70;;;1.60;;
36443;SDS011;24692;45.642;13.806;2022-08-21T10:54:56;1.60;;;1.50;;
36443;SDS011;24692;45.642;13.806;2022-08-21T10:57:52;3.28;;;1.45;;
36443;SDS011;24692;45.642;13.806;2022-08-21T11:00:33;1.45;;;1.35;;
36443;SDS011;24692;45.642;13.806;2022-08-21T11:06:21;1.30;;;1.20;;
36443;SDS011;24692;45.642;13.806;2022-08-21T11:08:51;1.55;;;1.10;;
36443;SDS011;24692;45.642;13.806;2022-08-21T11:11:58;1.67;;;1.20;;
36443;SDS011;24692;45.642;13.806;2022-08-21T11:17:22;1.33;;;1.10;;
36443;SDS011;24692;45.642;13.806;2022-08-21T11:19:59;1.38;;;1.15;;
36443;SDS011;24692;45.642;13.806;2022-08-21T11:22:58;1.40;;;1.30;;
36443;SDS011;24692;45.642;13.806;2022-08-21T11:28:00;1.52;;;1.30;;
36443;SDS011;24692;45.642;13.806;2022-08-21T11:30:44;1.20;;;1.10;;
36443;SDS011;24692;45.642;13.806;2022-08-21T11:33:36;2.15;;;1.40;;
36443;SDS011;24692;45.642;13.806;2022-08-21T11:39:11;1.95;;;1.30;;
36443;SDS011;24692;45.642;13.806;2022-08-21T11:41:54;1.70;;;1.20;;
36443;SDS011;24692;45.642;13.806;2022-08-21T11:47:12;2.35;;;1.40;;
36443;SDS011;24692;45.642;13.806;2022-08-21T11:55:06;4.30;;;1.40;;
36443;SDS011;24692;45.642;13.806;2022-08-21T12:00:26;2.58;;;1.60;;
36443;SDS011;24692;45.642;13.806;2022-08-21T12:03:07;4.05;;;1.30;;
36443;SDS011;24692;45.642;13.806;2022-08-21T12:05:38;1.83;;;1.30;;
36443;SDS011;24692;45.642;13.806;2022-08-21T12:10:37;2.35;;;1.50;;
36443;SDS011;24692;45.642;13.806;2022-08-21T12:13:20;2.00;;;1.52;;
36443;SDS011;24692;45.642;13.806;2022-08-21T12:15:49;2.33;;;1.40;;
36443;SDS011;24692;45.642;13.806;2022-08-21T12:18:22;2.58;;;1.33;;
36443;SDS011;24692;45.642;13.806;2022-08-21T12:21:16;2.55;;;1.30;;
36443;SDS011;24692;45.642;13.806;2022-08-21T12:23:47;2.55;;;1.45;;
36443;SDS011;24692;45.642;13.806;2022-08-21T12:26:17;2.22;;;1.50;;
36443;SDS011;24692;45.642;13.806;2022-08-21T12:28:49;1.42;;;1.33;;
36443;SDS011;24692;45.642;13.806;2022-08-21T12:31:19;2.88;;;1.27;;
36443;SDS011;24692;45.642;13.806;2022-08-21T12:33:52;1.80;;;1.27;;
36443;SDS011;24692;45.642;13.806;2022-08-21T12:36:22;3.22;;;1.40;;
36443;SDS011;24692;45.642;13.806;2022-08-21T12:38:59;1.65;;;1.20;;
36443;SDS011;24692;45.642;13.806;2022-08-21T12:41:34;1.77;;;1.20;;
36443;SDS011;24692;45.642;13.806;2022-08-21T12:44:15;1.73;;;1.27;;
36443;SDS011;24692;45.642;13.806;2022-08-21T12:46:48;2.58;;;1.40;;
36443;SDS011;24692;45.642;13.806;2022-08-21T12:49:30;2.25;;;1.40;;
36443;SDS011;24692;45.642;13.806;2022-08-21T12:52:19;2.88;;;1.30;;
36443;SDS011;24692;45.642;13.806;2022-08-21T12:54:47;1.73;;;1.35;;
36443;SDS011;24692;45.642;13.806;2022-08-21T12:57:20;3.28;;;1.63;;
36443;SDS011;24692;45.642;13.806;2022-08-21T12:59:54;1.50;;;1.30;;
36443;SDS011;24692;45.642;13.806;2022-08-21T13:02:36;2.42;;;1.40;;
36443;SDS011;24692;45.642;13.806;2022-08-21T13:05:05;3.08;;;1.33;;
36443;SDS011;24692;45.642;13.806;2022-08-21T13:07:33;2.97;;;1.40;;
36443;SDS011;24692;45.642;13.806;2022-08-21T13:10:05;1.60;;;1.15;;
36443;SDS011;24692;45.642;13.806;2022-08-21T13:12:40;2.55;;;1.50;;
36443;SDS011;24692;45.642;13.806;2022-08-21T13:15:06;2.45;;;1.48;;
36443;SDS011;24692;45.642;13.806;2022-08-21T13:17:35;2.38;;;1.40;;
36443;SDS011;24692;45.642;13.806;2022-08-21T13:20:06;2.72;;;1.20;;
36443;SDS011;24692;45.642;13.806;2022-08-21T13:22:43;1.77;;;1.30;;
36443;SDS011;24692;45.642;13.806;2022-08-21T13:25:10;8.55;;;1.30;;
36443;SDS011;24692;45.642;13.806;2022-08-21T13:27:42;3.47;;;1.40;;
36443;SDS011;24692;45.642;13.806;2022-08-21T13:30:17;1.50;;;1.40;;
36443;SDS011;24692;45.642;13.806;2022-08-21T13:32:46;2.45;;;1.50;;
36443;SDS011;24692;45.642;13.806;2022-08-21T13:35:23;3.20;;;1.25;;
36443;SDS011;24692;45.642;13.806;2022-08-21T13:38:09;1.60;;;1.27;;
36443;SDS011;24692;45.642;13.806;2022-08-21T13:40:40;2.72;;;1.50;;
36443;SDS011;24692;45.642;13.806;2022-08-21T13:43:12;1.88;;;1.60;;
36443;SDS011;24692;45.642;13.806;2022-08-21T13:45:42;4.40;;;1.73;;
36443;SDS011;24692;45.642;13.806;2022-08-21T13:48:09;1.88;;;1.33;;
36443;SDS011;24692;45.642;13.806;2022-08-21T13:50:36;5.75;;;1.58;;
36443;SDS011;24692;45.642;13.806;2022-08-21T13:53:04;2.00;;;1.40;;
36443;SDS011;24692;45.642;13.806;2022-08-21T13:55:39;1.50;;;1.40;;
36443;SDS011;24692;45.642;13.806;2022-08-21T13:58:08;2.53;;;1.50;;
36443;SDS011;24692;45.642;13.806;2022-08-21T14:00:44;0.95;;;0.95;;
36443;SDS011;24692;45.642;13.806;2022-08-21T14:06:14;1.17;;;1.00;;
36443;SDS011;24692;45.642;13.806;2022-08-21T14:08:46;1.27;;;1.10;;
36443;SDS011;24692;45.642;13.806;2022-08-21T14:11:18;2.20;;;1.10;;
36443;SDS011;24692;45.642;13.806;2022-08-21T14:14:31;1.05;;;0.90;;
36443;SDS011;24692;45.642;13.806;2022-08-21T14:16:58;1.10;;;1.00;;
36443;SDS011;24692;45.642;13.806;2022-08-21T14:19:39;2.35;;;1.10;;
36443;SDS011;24692;45.642;13.806;2022-08-21T14:25:07;1.50;;;1.20;;
36443;SDS011;24692;45.642;13.806;2022-08-21T14:30:35;1.30;;;1.02;;
36443;SDS011;24692;45.642;13.806;2022-08-21T14:33:03;1.02;;;1.02;;
36443;SDS011;24692;45.642;13.806;2022-08-21T14:35:34;0.98;;;0.90;;
36443;SDS011;24692;45.642;13.806;2022-08-21T14:37:59;1.70;;;1.20;;
36443;SDS011;24692;45.642;13.806;2022-08-21T14:40:25;1.42;;;1.20;;
36443;SDS011;24692;45.642;13.806;2022-08-21T14:42:51;1.10;;;0.98;;
36443;SDS011;24692;45.642;13.806;2022-08-21T14:47:44;1.00;;;0.98;;
36443;SDS011;24692;45.642;13.806;2022-08-21T14:50:11;1.40;;;0.90;;
36443;SDS011;24692;45.642;13.806;2022-08-21T14:52:37;0.93;;;0.93;;
36443;SDS011;24692;45.642;13.806;2022-08-21T14:55:04;1.95;;;1.23;;
36443;SDS011;24692;45.642;13.806;2022-08-21T14:57:31;1.33;;;1.00;;
36443;SDS011;24692;45.642;13.806;2022-08-21T14:59:57;1.20;;;1.10;;
36443;SDS011;24692;45.642;13.806;2022-08-21T15:02:24;1.30;;;0.93;;
36443;SDS011;24692;45.642;13.806;2022-08-21T15:04:50;1.00;;;0.90;;
36443;SDS011;24692;45.642;13.806;2022-08-21T15:07:16;1.23;;;1.13;;
36443;SDS011;24692;45.642;13.806;2022-08-21T15:09:42;0.90;;;0.90;;
36443;SDS011;24692;45.642;13.806;2022-08-21T15:12:07;1.95;;;1.00;;
36443;SDS011;24692;45.642;13.806;2022-08-21T15:14:36;1.13;;;1.10;;
36443;SDS011;24692;45.642;13.806;2022-08-21T15:17:05;1.00;;;1.00;;
36443;SDS011;24692;45.642;13.806;2022-08-21T15:19:32;2.17;;;1.17;;
36443;SDS011;24692;45.642;13.806;2022-08-21T15:21:58;1.65;;;0.90;;
36443;SDS011;24692;45.642;13.806;2022-08-21T15:24:24;0.80;;;0.80;;
36443;SDS011;24692;45.642;13.806;2022-08-21T15:26:51;1.17;;;1.10;;
36443;SDS011;24692;45.642;13.806;2022-08-21T15:29:17;2.20;;;1.20;;
36443;SDS011;24692;45.642;13.806;2022-08-21T15:31:53;1.25;;;0.95;;
36443;SDS011;24692;45.642;13.806;2022-08-21T15:34:21;2.20;;;1.30;;
36443;SDS011;24692;45.642;13.806;2022-08-21T15:36:48;1.27;;;1.05;;
36443;SDS011;24692;45.642;13.806;2022-08-21T15:39:14;3.42;;;1.10;;
36443;SDS011;24692;45.642;13.806;2022-08-21T15:41:40;1.25;;;1.10;;
36443;SDS011;24692;45.642;13.806;2022-08-21T15:44:06;1.30;;;1.20;;
36443;SDS011;24692;45.642;13.806;2022-08-21T15:46:33;1.85;;;1.20;;
36443;SDS011;24692;45.642;13.806;2022-08-21T15:48:59;3.78;;;1.50;;
36443;SDS011;24692;45.642;13.806;2022-08-21T15:51:25;3.00;;;1.33;;
36443;SDS011;24692;45.642;13.806;2022-08-21T15:53:50;4.30;;;1.40;;
36443;SDS011;24692;45.642;13.806;2022-08-21T15:56:23;4.90;;;1.30;;
36443;SDS011;24692;45.642;13.806;2022-08-21T15:58:51;3.97;;;1.50;;
36443;SDS011;24692;45.642;13.806;2022-08-21T16:01:20;2.67;;;1.33;;
36443;SDS011;24692;45.642;13.806;2022-08-21T16:03:47;4.80;;;1.67;;
36443;SDS011;24692;45.642;13.806;2022-08-21T16:06:15;2.72;;;1.60;;
36443;SDS011;24692;45.642;13.806;2022-08-21T16:08:41;2.40;;;1.70;;